sensor_id;sensor_type;location;lat;lon;timestamp;P1;durP1;ratioP1;P2;durP2;ratioP2
25073;SDS011;13066;52.042;5.648;2023-06-26T00:01:26;12.07;;;7.00;;
25073;SDS011;13066;52.042;5.648;2023-06-26T00:03:57;9.02;;;6.88;;
25073;SDS011;13066;52.042;5.648;2023-06-26T00:06:26;9.75;;;7.32;;
25073;SDS011;13066;52.042;5.648;2023-06-26T00:08:54;10.98;;;7.50;;
25073;SDS011;13066;52.042;5.648;2023-06-26T00:11:23;9.25;;;6.97;;
25073;SDS011;13066;52.042;5.648;2023-06-26T00:13:51;10.40;;;7.03;;
25073;SDS011;13066;52.042;5.648;2023-06-26T00:16:19;13.00;;;7.57;;
25073;SDS011;13066;52.042;5.648;2023-06-26T00:18:47;9.18;;;7.38;;
25073;SDS011;13066;52.042;5.648;2023-06-26T00:21:16;10.05;;;7.40;;
25073;SDS011;13066;52.042;5.648;2023-06-26T00:23:45;10.57;;;7.50;;
25073;SDS011;13066;52.042;5.648;2023-06-26T00:26:13;10.00;;;7.60;;
25073;SDS011;13066;52.042;5.648;2023-06-26T00:28:41;9.52;;;7.40;;
25073;SDS011;13066;52.042;5.648;2023-06-26T00:31:09;11.80;;;7.85;;
25073;SDS011;13066;52.042;5.648;2023-06-26T00:33:37;9.13;;;7.88;;
25073;SDS011;13066;52.042;5.648;2023-06-26T00:36:05;8.60;;;7.25;;
25073;SDS011;13066;52.042;5.648;2023-06-26T00:38:34;9.95;;;8.40;;
25073;SDS011;13066;52.042;5.648;2023-06-26T00:41:05;9.57;;;7.95;;
25073;SDS011;13066;52.042;5.648;2023-06-26T00:43:39;10.23;;;7.88;;
25073;SDS011;13066;52.042;5.648;2023-06-26T00:46:10;10.18;;;8.60;;
25073;SDS011;13066;52.042;5.648;2023-06-26T00:48:41;10.25;;;8.45;;
25073;SDS011;13066;52.042;5.648;2023-06-26T00:51:12;11.43;;;8.68;;
25073;SDS011;13066;52.042;5.648;2023-06-26T00:53:41;13.38;;;10.07;;
25073;SDS011;13066;52.042;5.648;2023-06-26T00:56:09;13.00;;;9.15;;
25073;SDS011;13066;52.042;5.648;2023-06-26T00:58:38;15.18;;;9.13;;
25073;SDS011;13066;52.042;5.648;2023-06-26T01:01:05;12.05;;;9.02;;
25073;SDS011;13066;52.042;5.648;2023-06-26T01:03:35;15.23;;;8.95;;
25073;SDS011;13066;52.042;5.648;2023-06-26T01:06:06;14.05;;;9.18;;
25073;SDS011;13066;52.042;5.648;2023-06-26T01:08:38;14.20;;;9.73;;
25073;SDS011;13066;52.042;5.648;2023-06-26T01:11:07;11.68;;;9.43;;
25073;SDS011;13066;52.042;5.648;2023-06-26T01:13:35;12.77;;;9.45;;
25073;SDS011;13066;52.042;5.648;2023-06-26T01:16:04;11.13;;;8.60;;
25073;SDS011;13066;52.042;5.648;2023-06-26T01:18:32;11.57;;;8.98;;
25073;SDS011;13066;52.042;5.648;2023-06-26T01:21:02;12.02;;;9.27;;
25073;SDS011;13066;52.042;5.648;2023-06-26T01:23:31;11.90;;;10.07;;
25073;SDS011;13066;52.042;5.648;2023-06-26T01:26:15;12.50;;;9.52;;
25073;SDS011;13066;52.042;5.648;2023-06-26T01:28:44;11.90;;;9.68;;
25073;SDS011;13066;52.042;5.648;2023-06-26T01:31:13;13.38;;;10.18;;
25073;SDS011;13066;52.042;5.648;2023-06-26T01:33:41;12.63;;;9.70;;
25073;SDS011;13066;52.042;5.648;2023-06-26T01:36:10;13.63;;;9.13;;
25073;SDS011;13066;52.042;5.648;2023-06-26T01:38:38;11.40;;;8.07;;
25073;SDS011;13066;52.042;5.648;2023-06-26T01:41:06;11.70;;;8.73;;
25073;SDS011;13066;52.042;5.648;2023-06-26T01:43:40;9.63;;;7.75;;
25073;SDS011;13066;52.042;5.648;2023-06-26T01:46:15;8.82;;;6.82;;
25073;SDS011;13066;52.042;5.648;2023-06-26T01:48:49;8.55;;;7.10;;
25073;SDS011;13066;52.042;5.648;2023-06-26T01:51:21;17.30;;;6.55;;
25073;SDS011;13066;52.042;5.648;2023-06-26T01:53:55;7.85;;;6.18;;
25073;SDS011;13066;52.042;5.648;2023-06-26T01:56:24;9.95;;;5.63;;
25073;SDS011;13066;52.042;5.648;2023-06-26T01:58:54;10.07;;;5.80;;
25073;SDS011;13066;52.042;5.648;2023-06-26T02:01:23;11.48;;;5.28;;
25073;SDS011;13066;52.042;5.648;2023-06-26T02:03:51;9.55;;;5.90;;
25073;SDS011;13066;52.042;5.648;2023-06-26T02:06:19;9.57;;;4.72;;
25073;SDS011;13066;52.042;5.648;2023-06-26T02:08:47;12.23;;;5.20;;
25073;SDS011;13066;52.042;5.648;2023-06-26T02:11:15;7.05;;;5.25;;
25073;SDS011;13066;52.042;5.648;2023-06-26T02:13:43;8.60;;;5.40;;
25073;SDS011;13066;52.042;5.648;2023-06-26T02:16:13;7.60;;;5.07;;
25073;SDS011;13066;52.042;5.648;2023-06-26T02:18:41;8.00;;;5.10;;
25073;SDS011;13066;52.042;5.648;2023-06-26T02:21:10;15.35;;;4.90;;
25073;SDS011;13066;52.042;5.648;2023-06-26T02:23:38;14.88;;;5.30;;
25073;SDS011;13066;52.042;5.648;2023-06-26T02:26:06;8.82;;;4.93;;
25073;SDS011;13066;52.042;5.648;2023-06-26T02:28:34;8.18;;;4.80;;
25073;SDS011;13066;52.042;5.648;2023-06-26T02:31:02;11.00;;;4.80;;
25073;SDS011;13066;52.042;5.648;2023-06-26T02:33:33;10.60;;;5.40;;
25073;SDS011;13066;52.042;5.648;2023-06-26T02:36:01;8.65;;;4.55;;
25073;SDS011;13066;52.042;5.648;2023-06-26T02:38:29;9.20;;;4.85;;
25073;SDS011;13066;52.042;5.648;2023-06-26T02:40:58;14.57;;;4.55;;
25073;SDS011;13066;52.042;5.648;2023-06-26T02:43:25;10.70;;;5.22;;
25073;SDS011;13066;52.042;5.648;2023-06-26T02:45:54;10.93;;;4.68;;
25073;SDS011;13066;52.042;5.648;2023-06-26T02:48:22;12.20;;;4.75;;
25073;SDS011;13066;52.042;5.648;2023-06-26T02:50:52;10.13;;;4.43;;
25073;SDS011;13066;52.042;5.648;2023-06-26T02:53:25;11.18;;;4.53;;
25073;SDS011;13066;52.042;5.648;2023-06-26T02:55:53;9.80;;;4.82;;
25073;SDS011;13066;52.042;5.648;2023-06-26T02:58:21;6.85;;;4.70;;
25073;SDS011;13066;52.042;5.648;2023-06-26T03:00:50;9.45;;;4.43;;
25073;SDS011;13066;52.042;5.648;2023-06-26T03:03:20;10.80;;;4.30;;
25073;SDS011;13066;52.042;5.648;2023-06-26T03:05:48;8.90;;;4.32;;
25073;SDS011;13066;52.042;5.648;2023-06-26T03:08:17;10.80;;;4.03;;
25073;SDS011;13066;52.042;5.648;2023-06-26T03:10:45;12.85;;;4.40;;
25073;SDS011;13066;52.042;5.648;2023-06-26T03:13:14;10.52;;;4.30;;
25073;SDS011;13066;52.042;5.648;2023-06-26T03:15:43;15.38;;;4.63;;
25073;SDS011;13066;52.042;5.648;2023-06-26T03:18:11;13.77;;;4.55;;
25073;SDS011;13066;52.042;5.648;2023-06-26T03:20:39;11.10;;;4.43;;
25073;SDS011;13066;52.042;5.648;2023-06-26T03:23:07;12.88;;;5.28;;
25073;SDS011;13066;52.042;5.648;2023-06-26T03:25:37;13.40;;;4.65;;
25073;SDS011;13066;52.042;5.648;2023-06-26T03:28:25;10.18;;;4.70;;
25073;SDS011;13066;52.042;5.648;2023-06-26T03:30:53;13.27;;;5.47;;
25073;SDS011;13066;52.042;5.648;2023-06-26T03:33:21;11.38;;;4.90;;
25073;SDS011;13066;52.042;5.648;2023-06-26T03:35:49;12.95;;;5.03;;
25073;SDS011;13066;52.042;5.648;2023-06-26T03:38:18;12.23;;;5.25;;
25073;SDS011;13066;52.042;5.648;2023-06-26T03:40:48;15.95;;;5.22;;
25073;SDS011;13066;52.042;5.648;2023-06-26T03:43:16;10.30;;;4.97;;
25073;SDS011;13066;52.042;5.648;2023-06-26T03:46:04;14.75;;;5.05;;
25073;SDS011;13066;52.042;5.648;2023-06-26T03:48:32;15.80;;;5.85;;
25073;SDS011;13066;52.042;5.648;2023-06-26T03:51:00;17.65;;;5.43;;
25073;SDS011;13066;52.042;5.648;2023-06-26T03:53:28;19.15;;;5.05;;
25073;SDS011;13066;52.042;5.648;2023-06-26T03:55:58;20.65;;;5.25;;
25073;SDS011;13066;52.042;5.648;2023-06-26T03:58:26;12.40;;;5.20;;
25073;SDS011;13066;52.042;5.648;2023-06-26T04:00:54;13.82;;;5.50;;
25073;SDS011;13066;52.042;5.648;2023-06-26T04:03:24;18.92;;;5.43;;
25073;SDS011;13066;52.042;5.648;2023-06-26T04:05:52;14.32;;;5.90;;
25073;SDS011;13066;52.042;5.648;2023-06-26T04:08:20;13.60;;;5.43;;
25073;SDS011;13066;52.042;5.648;2023-06-26T04:10:48;21.17;;;5.85;;
25073;SDS011;13066;52.042;5.648;2023-06-26T04:13:19;19.45;;;5.55;;
25073;SDS011;13066;52.042;5.648;2023-06-26T04:15:47;15.52;;;5.20;;
25073;SDS011;13066;52.042;5.648;2023-06-26T04:18:15;16.48;;;5.45;;
25073;SDS011;13066;52.042;5.648;2023-06-26T04:23:32;24.63;;;6.32;;
25073;SDS011;13066;52.042;5.648;2023-06-26T04:26:00;17.80;;;6.53;;
25073;SDS011;13066;52.042;5.648;2023-06-26T04:28:30;20.17;;;6.07;;
25073;SDS011;13066;52.042;5.648;2023-06-26T04:30:59;17.73;;;5.78;;
25073;SDS011;13066;52.042;5.648;2023-06-26T04:33:27;21.15;;;6.80;;
25073;SDS011;13066;52.042;5.648;2023-06-26T04:35:55;18.55;;;5.90;;
25073;SDS011;13066;52.042;5.648;2023-06-26T04:38:23;16.17;;;5.82;;
25073;SDS011;13066;52.042;5.648;2023-06-26T04:40:51;19.27;;;6.68;;
25073;SDS011;13066;52.042;5.648;2023-06-26T04:43:19;18.27;;;6.40;;
25073;SDS011;13066;52.042;5.648;2023-06-26T04:45:48;28.38;;;6.38;;
25073;SDS011;13066;52.042;5.648;2023-06-26T04:48:16;20.63;;;6.75;;
25073;SDS011;13066;52.042;5.648;2023-06-26T04:50:45;19.45;;;5.82;;
25073;SDS011;13066;52.042;5.648;2023-06-26T04:53:21;19.98;;;6.30;;
25073;SDS011;13066;52.042;5.648;2023-06-26T04:55:49;16.38;;;5.57;;
25073;SDS011;13066;52.042;5.648;2023-06-26T04:58:18;16.90;;;6.15;;
25073;SDS011;13066;52.042;5.648;2023-06-26T05:00:46;15.30;;;5.13;;
25073;SDS011;13066;52.042;5.648;2023-06-26T05:03:16;22.75;;;6.72;;
25073;SDS011;13066;52.042;5.648;2023-06-26T05:05:44;13.88;;;5.95;;
25073;SDS011;13066;52.042;5.648;2023-06-26T05:08:13;21.10;;;6.22;;
25073;SDS011;13066;52.042;5.648;2023-06-26T05:10:41;14.82;;;5.32;;
25073;SDS011;13066;52.042;5.648;2023-06-26T05:13:09;16.65;;;5.57;;
25073;SDS011;13066;52.042;5.648;2023-06-26T05:15:37;14.38;;;5.53;;
25073;SDS011;13066;52.042;5.648;2023-06-26T05:18:05;18.08;;;5.47;;
25073;SDS011;13066;52.042;5.648;2023-06-26T05:20:35;12.98;;;5.05;;
25073;SDS011;13066;52.042;5.648;2023-06-26T05:23:04;17.35;;;5.22;;
25073;SDS011;13066;52.042;5.648;2023-06-26T05:25:33;17.02;;;5.05;;
25073;SDS011;13066;52.042;5.648;2023-06-26T05:28:01;16.95;;;4.40;;
25073;SDS011;13066;52.042;5.648;2023-06-26T05:30:32;15.45;;;4.60;;
25073;SDS011;13066;52.042;5.648;2023-06-26T05:33:02;12.32;;;4.38;;
25073;SDS011;13066;52.042;5.648;2023-06-26T05:35:32;15.93;;;4.50;;
25073;SDS011;13066;52.042;5.648;2023-06-26T05:38:03;10.00;;;4.45;;
25073;SDS011;13066;52.042;5.648;2023-06-26T05:40:31;12.32;;;4.57;;
25073;SDS011;13066;52.042;5.648;2023-06-26T05:43:01;11.35;;;4.10;;
25073;SDS011;13066;52.042;5.648;2023-06-26T05:45:30;12.73;;;4.55;;
25073;SDS011;13066;52.042;5.648;2023-06-26T05:47:58;16.40;;;4.10;;
25073;SDS011;13066;52.042;5.648;2023-06-26T05:50:26;9.27;;;3.97;;
25073;SDS011;13066;52.042;5.648;2023-06-26T05:52:57;11.88;;;3.80;;
25073;SDS011;13066;52.042;5.648;2023-06-26T05:55:25;15.00;;;3.90;;
25073;SDS011;13066;52.042;5.648;2023-06-26T05:57:54;13.32;;;3.83;;
25073;SDS011;13066;52.042;5.648;2023-06-26T06:00:23;9.95;;;4.00;;
25073;SDS011;13066;52.042;5.648;2023-06-26T06:02:53;6.57;;;3.28;;
25073;SDS011;13066;52.042;5.648;2023-06-26T06:05:21;8.10;;;3.75;;
25073;SDS011;13066;52.042;5.648;2023-06-26T06:07:49;15.60;;;3.25;;
25073;SDS011;13066;52.042;5.648;2023-06-26T06:10:19;10.55;;;3.80;;
25073;SDS011;13066;52.042;5.648;2023-06-26T06:12:47;11.50;;;3.33;;
25073;SDS011;13066;52.042;5.648;2023-06-26T06:15:15;7.40;;;3.42;;
25073;SDS011;13066;52.042;5.648;2023-06-26T06:17:43;10.98;;;3.70;;
25073;SDS011;13066;52.042;5.648;2023-06-26T06:20:11;8.45;;;3.47;;
25073;SDS011;13066;52.042;5.648;2023-06-26T06:22:39;9.65;;;3.30;;
25073;SDS011;13066;52.042;5.648;2023-06-26T06:25:07;9.48;;;3.45;;
25073;SDS011;13066;52.042;5.648;2023-06-26T06:27:37;9.38;;;3.15;;
25073;SDS011;13066;52.042;5.648;2023-06-26T06:30:05;7.40;;;2.95;;
25073;SDS011;13066;52.042;5.648;2023-06-26T06:32:34;9.52;;;3.40;;
25073;SDS011;13066;52.042;5.648;2023-06-26T06:35:02;9.60;;;3.53;;
25073;SDS011;13066;52.042;5.648;2023-06-26T06:37:36;10.13;;;4.00;;
25073;SDS011;13066;52.042;5.648;2023-06-26T06:40:04;9.43;;;3.10;;
25073;SDS011;13066;52.042;5.648;2023-06-26T06:42:33;7.82;;;3.05;;
25073;SDS011;13066;52.042;5.648;2023-06-26T06:45:03;6.40;;;3.03;;
25073;SDS011;13066;52.042;5.648;2023-06-26T06:47:32;8.93;;;3.00;;
25073;SDS011;13066;52.042;5.648;2023-06-26T06:50:01;8.02;;;3.10;;
25073;SDS011;13066;52.042;5.648;2023-06-26T06:52:35;8.20;;;2.80;;
25073;SDS011;13066;52.042;5.648;2023-06-26T06:55:04;11.32;;;2.90;;
25073;SDS011;13066;52.042;5.648;2023-06-26T06:57:35;9.30;;;2.88;;
25073;SDS011;13066;52.042;5.648;2023-06-26T07:00:07;9.45;;;3.10;;
25073;SDS011;13066;52.042;5.648;2023-06-26T07:02:36;5.90;;;3.15;;
25073;SDS011;13066;52.042;5.648;2023-06-26T07:05:05;6.63;;;2.90;;
25073;SDS011;13066;52.042;5.648;2023-06-26T07:07:33;7.10;;;3.00;;
25073;SDS011;13066;52.042;5.648;2023-06-26T07:10:02;13.60;;;3.58;;
25073;SDS011;13066;52.042;5.648;2023-06-26T07:12:31;10.50;;;2.78;;
25073;SDS011;13066;52.042;5.648;2023-06-26T07:15:00;8.10;;;3.08;;
25073;SDS011;13066;52.042;5.648;2023-06-26T07:17:30;8.20;;;3.03;;
25073;SDS011;13066;52.042;5.648;2023-06-26T07:19:58;7.55;;;3.05;;
25073;SDS011;13066;52.042;5.648;2023-06-26T07:22:27;8.93;;;3.00;;
25073;SDS011;13066;52.042;5.648;2023-06-26T07:24:55;10.98;;;3.15;;
25073;SDS011;13066;52.042;5.648;2023-06-26T07:27:23;7.95;;;3.75;;
25073;SDS011;13066;52.042;5.648;2023-06-26T07:29:51;8.57;;;3.10;;
25073;SDS011;13066;52.042;5.648;2023-06-26T07:32:19;7.07;;;3.10;;
25073;SDS011;13066;52.042;5.648;2023-06-26T07:34:48;7.38;;;2.67;;
25073;SDS011;13066;52.042;5.648;2023-06-26T07:37:16;7.28;;;2.90;;
25073;SDS011;13066;52.042;5.648;2023-06-26T07:39:44;4.45;;;2.90;;
25073;SDS011;13066;52.042;5.648;2023-06-26T07:42:12;5.70;;;3.35;;
25073;SDS011;13066;52.042;5.648;2023-06-26T07:44:41;5.50;;;2.90;;
25073;SDS011;13066;52.042;5.648;2023-06-26T07:47:08;7.72;;;3.30;;
25073;SDS011;13066;52.042;5.648;2023-06-26T07:49:37;5.05;;;2.85;;
25073;SDS011;13066;52.042;5.648;2023-06-26T07:52:07;7.47;;;3.30;;
25073;SDS011;13066;52.042;5.648;2023-06-26T07:54:36;8.40;;;3.08;;
25073;SDS011;13066;52.042;5.648;2023-06-26T07:57:05;7.13;;;3.42;;
25073;SDS011;13066;52.042;5.648;2023-06-26T07:59:35;10.80;;;3.58;;
25073;SDS011;13066;52.042;5.648;2023-06-26T08:02:03;13.35;;;3.63;;
25073;SDS011;13066;52.042;5.648;2023-06-26T08:04:31;8.75;;;3.47;;
25073;SDS011;13066;52.042;5.648;2023-06-26T08:07:00;10.30;;;3.50;;
25073;SDS011;13066;52.042;5.648;2023-06-26T08:09:31;7.75;;;3.00;;
25073;SDS011;13066;52.042;5.648;2023-06-26T08:12:00;20.67;;;4.00;;
25073;SDS011;13066;52.042;5.648;2023-06-26T08:14:28;8.50;;;3.58;;
25073;SDS011;13066;52.042;5.648;2023-06-26T08:16:56;11.43;;;3.35;;
25073;SDS011;13066;52.042;5.648;2023-06-26T08:19:23;5.00;;;2.90;;
25073;SDS011;13066;52.042;5.648;2023-06-26T08:21:52;8.07;;;3.47;;
25073;SDS011;13066;52.042;5.648;2023-06-26T08:24:19;7.95;;;3.50;;
25073;SDS011;13066;52.042;5.648;2023-06-26T08:26:48;8.05;;;3.50;;
25073;SDS011;13066;52.042;5.648;2023-06-26T08:29:16;5.70;;;3.20;;
25073;SDS011;13066;52.042;5.648;2023-06-26T08:31:44;4.82;;;2.90;;
25073;SDS011;13066;52.042;5.648;2023-06-26T08:34:12;6.75;;;3.22;;
25073;SDS011;13066;52.042;5.648;2023-06-26T08:36:40;5.97;;;2.83;;
25073;SDS011;13066;52.042;5.648;2023-06-26T08:39:08;8.50;;;2.83;;
25073;SDS011;13066;52.042;5.648;2023-06-26T08:41:36;7.75;;;3.20;;
25073;SDS011;13066;52.042;5.648;2023-06-26T08:44:06;9.18;;;3.13;;
25073;SDS011;13066;52.042;5.648;2023-06-26T08:46:34;8.48;;;2.30;;
25073;SDS011;13066;52.042;5.648;2023-06-26T08:49:04;6.80;;;2.28;;
25073;SDS011;13066;52.042;5.648;2023-06-26T08:51:36;6.60;;;2.38;;
25073;SDS011;13066;52.042;5.648;2023-06-26T08:54:06;8.40;;;2.42;;
25073;SDS011;13066;52.042;5.648;2023-06-26T08:56:35;14.15;;;2.60;;
25073;SDS011;13066;52.042;5.648;2023-06-26T08:59:06;10.68;;;2.50;;
25073;SDS011;13066;52.042;5.648;2023-06-26T09:01:34;10.68;;;2.85;;
25073;SDS011;13066;52.042;5.648;2023-06-26T09:04:02;9.70;;;2.30;;
25073;SDS011;13066;52.042;5.648;2023-06-26T09:06:31;4.10;;;1.80;;
25073;SDS011;13066;52.042;5.648;2023-06-26T09:08:59;6.80;;;2.05;;
25073;SDS011;13066;52.042;5.648;2023-06-26T09:11:27;4.97;;;1.48;;
25073;SDS011;13066;52.042;5.648;2023-06-26T09:13:55;11.23;;;1.95;;
25073;SDS011;13066;52.042;5.648;2023-06-26T09:16:25;11.60;;;1.67;;
25073;SDS011;13066;52.042;5.648;2023-06-26T09:18:55;8.00;;;1.80;;
25073;SDS011;13066;52.042;5.648;2023-06-26T09:21:23;3.90;;;1.50;;
25073;SDS011;13066;52.042;5.648;2023-06-26T09:23:52;5.28;;;1.60;;
25073;SDS011;13066;52.042;5.648;2023-06-26T09:26:21;5.05;;;1.92;;
25073;SDS011;13066;52.042;5.648;2023-06-26T09:28:49;8.07;;;1.70;;
25073;SDS011;13066;52.042;5.648;2023-06-26T09:31:17;10.52;;;1.77;;
25073;SDS011;13066;52.042;5.648;2023-06-26T09:34:08;9.77;;;1.88;;
25073;SDS011;13066;52.042;5.648;2023-06-26T09:36:38;6.80;;;2.22;;
25073;SDS011;13066;52.042;5.648;2023-06-26T09:39:08;7.18;;;1.33;;
25073;SDS011;13066;52.042;5.648;2023-06-26T09:41:40;4.72;;;1.52;;
25073;SDS011;13066;52.042;5.648;2023-06-26T09:44:10;9.20;;;1.73;;
25073;SDS011;13066;52.042;5.648;2023-06-26T09:46:39;7.60;;;1.63;;
25073;SDS011;13066;52.042;5.648;2023-06-26T09:49:09;4.03;;;1.52;;
25073;SDS011;13066;52.042;5.648;2023-06-26T09:51:38;12.05;;;1.70;;
25073;SDS011;13066;52.042;5.648;2023-06-26T09:54:07;8.55;;;1.70;;
25073;SDS011;13066;52.042;5.648;2023-06-26T09:56:35;8.60;;;1.75;;
25073;SDS011;13066;52.042;5.648;2023-06-26T09:59:04;4.05;;;1.45;;
25073;SDS011;13066;52.042;5.648;2023-06-26T10:01:32;5.90;;;1.50;;
25073;SDS011;13066;52.042;5.648;2023-06-26T10:04:00;3.75;;;1.60;;
25073;SDS011;13066;52.042;5.648;2023-06-26T10:06:35;6.15;;;1.73;;
25073;SDS011;13066;52.042;5.648;2023-06-26T10:09:04;7.05;;;1.83;;
25073;SDS011;13066;52.042;5.648;2023-06-26T10:11:33;6.85;;;1.67;;
25073;SDS011;13066;52.042;5.648;2023-06-26T10:14:04;5.80;;;2.03;;
25073;SDS011;13066;52.042;5.648;2023-06-26T10:16:43;5.82;;;1.63;;
25073;SDS011;13066;52.042;5.648;2023-06-26T10:19:11;10.27;;;2.30;;
25073;SDS011;13066;52.042;5.648;2023-06-26T10:21:42;5.15;;;1.67;;
25073;SDS011;13066;52.042;5.648;2023-06-26T10:24:10;6.70;;;1.70;;
25073;SDS011;13066;52.042;5.648;2023-06-26T10:26:41;3.38;;;1.67;;
25073;SDS011;13066;52.042;5.648;2023-06-26T10:29:11;9.38;;;1.63;;
25073;SDS011;13066;52.042;5.648;2023-06-26T10:31:40;15.10;;;1.95;;
25073;SDS011;13066;52.042;5.648;2023-06-26T10:34:12;7.50;;;1.70;;
25073;SDS011;13066;52.042;5.648;2023-06-26T10:36:39;11.25;;;2.05;;
25073;SDS011;13066;52.042;5.648;2023-06-26T10:39:10;3.97;;;1.75;;
25073;SDS011;13066;52.042;5.648;2023-06-26T10:41:38;3.35;;;1.48;;
25073;SDS011;13066;52.042;5.648;2023-06-26T10:44:26;4.65;;;1.58;;
25073;SDS011;13066;52.042;5.648;2023-06-26T10:46:55;6.75;;;1.60;;
25073;SDS011;13066;52.042;5.648;2023-06-26T10:49:25;3.88;;;1.60;;
25073;SDS011;13066;52.042;5.648;2023-06-26T10:51:53;3.08;;;1.50;;
25073;SDS011;13066;52.042;5.648;2023-06-26T10:54:25;8.48;;;1.63;;
25073;SDS011;13066;52.042;5.648;2023-06-26T10:56:56;8.45;;;1.70;;
25073;SDS011;13066;52.042;5.648;2023-06-26T10:59:26;5.63;;;2.03;;
25073;SDS011;13066;52.042;5.648;2023-06-26T11:01:54;5.55;;;1.70;;
25073;SDS011;13066;52.042;5.648;2023-06-26T11:07:17;4.75;;;1.50;;
25073;SDS011;13066;52.042;5.648;2023-06-26T11:09:54;4.93;;;1.75;;
25073;SDS011;13066;52.042;5.648;2023-06-26T11:12:33;12.65;;;1.60;;
25073;SDS011;13066;52.042;5.648;2023-06-26T11:15:02;3.17;;;1.30;;
25073;SDS011;13066;52.042;5.648;2023-06-26T11:17:30;4.07;;;1.50;;
25073;SDS011;13066;52.042;5.648;2023-06-26T11:19:59;2.45;;;1.15;;
25073;SDS011;13066;52.042;5.648;2023-06-26T11:22:30;4.38;;;1.60;;
25073;SDS011;13066;52.042;5.648;2023-06-26T11:25:00;4.70;;;1.60;;
25073;SDS011;13066;52.042;5.648;2023-06-26T11:27:31;8.68;;;1.90;;
25073;SDS011;13066;52.042;5.648;2023-06-26T11:29:59;5.60;;;1.60;;
25073;SDS011;13066;52.042;5.648;2023-06-26T11:32:27;9.38;;;1.52;;
25073;SDS011;13066;52.042;5.648;2023-06-26T11:34:55;3.22;;;1.60;;
25073;SDS011;13066;52.042;5.648;2023-06-26T11:37:23;10.85;;;1.83;;
25073;SDS011;13066;52.042;5.648;2023-06-26T11:39:52;10.90;;;1.80;;
25073;SDS011;13066;52.042;5.648;2023-06-26T11:42:21;12.07;;;2.20;;
25073;SDS011;13066;52.042;5.648;2023-06-26T11:44:51;5.93;;;1.60;;
25073;SDS011;13066;52.042;5.648;2023-06-26T11:47:20;6.75;;;1.73;;
25073;SDS011;13066;52.042;5.648;2023-06-26T11:49:49;4.93;;;1.70;;
25073;SDS011;13066;52.042;5.648;2023-06-26T11:52:17;4.57;;;1.77;;
25073;SDS011;13066;52.042;5.648;2023-06-26T11:54:45;6.63;;;1.55;;
25073;SDS011;13066;52.042;5.648;2023-06-26T11:57:13;7.43;;;1.67;;
25073;SDS011;13066;52.042;5.648;2023-06-26T11:59:43;2.63;;;1.30;;
25073;SDS011;13066;52.042;5.648;2023-06-26T12:02:12;5.85;;;1.52;;
25073;SDS011;13066;52.042;5.648;2023-06-26T12:04:42;2.78;;;1.33;;
25073;SDS011;13066;52.042;5.648;2023-06-26T12:07:11;6.07;;;1.55;;
25073;SDS011;13066;52.042;5.648;2023-06-26T12:09:41;6.80;;;1.40;;
25073;SDS011;13066;52.042;5.648;2023-06-26T12:12:10;7.28;;;1.70;;
25073;SDS011;13066;52.042;5.648;2023-06-26T12:14:39;7.82;;;2.15;;
25073;SDS011;13066;52.042;5.648;2023-06-26T12:17:10;4.88;;;1.40;;
25073;SDS011;13066;52.042;5.648;2023-06-26T12:19:39;8.05;;;1.50;;
25073;SDS011;13066;52.042;5.648;2023-06-26T12:22:10;3.95;;;1.40;;
25073;SDS011;13066;52.042;5.648;2023-06-26T12:24:38;4.97;;;1.48;;
25073;SDS011;13066;52.042;5.648;2023-06-26T12:27:07;21.05;;;2.53;;
25073;SDS011;13066;52.042;5.648;2023-06-26T12:29:36;72.15;;;7.93;;
25073;SDS011;13066;52.042;5.648;2023-06-26T12:32:07;18.42;;;3.65;;
25073;SDS011;13066;52.042;5.648;2023-06-26T12:34:38;7.78;;;2.05;;
25073;SDS011;13066;52.042;5.648;2023-06-26T12:37:07;9.48;;;1.52;;
25073;SDS011;13066;52.042;5.648;2023-06-26T12:39:46;4.07;;;1.30;;
25073;SDS011;13066;52.042;5.648;2023-06-26T12:42:15;4.32;;;1.40;;
25073;SDS011;13066;52.042;5.648;2023-06-26T12:44:44;4.28;;;1.40;;
25073;SDS011;13066;52.042;5.648;2023-06-26T12:47:14;7.55;;;1.42;;
25073;SDS011;13066;52.042;5.648;2023-06-26T12:49:43;8.90;;;1.73;;
25073;SDS011;13066;52.042;5.648;2023-06-26T12:52:12;5.10;;;1.40;;
25073;SDS011;13066;52.042;5.648;2023-06-26T12:54:41;3.72;;;1.42;;
25073;SDS011;13066;52.042;5.648;2023-06-26T12:57:10;4.00;;;1.42;;
25073;SDS011;13066;52.042;5.648;2023-06-26T12:59:41;7.50;;;1.45;;
25073;SDS011;13066;52.042;5.648;2023-06-26T13:02:09;3.05;;;1.17;;
25073;SDS011;13066;52.042;5.648;2023-06-26T13:04:39;7.55;;;1.40;;
25073;SDS011;13066;52.042;5.648;2023-06-26T13:07:08;8.80;;;1.50;;
25073;SDS011;13066;52.042;5.648;2023-06-26T13:09:36;2.28;;;1.00;;
25073;SDS011;13066;52.042;5.648;2023-06-26T13:12:05;2.58;;;1.17;;
25073;SDS011;13066;52.042;5.648;2023-06-26T13:14:35;3.08;;;0.95;;
25073;SDS011;13066;52.042;5.648;2023-06-26T13:17:03;4.93;;;1.77;;
25073;SDS011;13066;52.042;5.648;2023-06-26T13:19:35;3.60;;;1.10;;
25073;SDS011;13066;52.042;5.648;2023-06-26T13:22:05;4.53;;;1.27;;
25073;SDS011;13066;52.042;5.648;2023-06-26T13:24:33;3.55;;;1.10;;
25073;SDS011;13066;52.042;5.648;2023-06-26T13:27:01;3.67;;;1.17;;
25073;SDS011;13066;52.042;5.648;2023-06-26T13:29:29;12.10;;;1.75;;
25073;SDS011;13066;52.042;5.648;2023-06-26T13:31:58;3.38;;;1.20;;
25073;SDS011;13066;52.042;5.648;2023-06-26T13:34:27;5.68;;;1.20;;
25073;SDS011;13066;52.042;5.648;2023-06-26T13:36:56;6.47;;;1.40;;
25073;SDS011;13066;52.042;5.648;2023-06-26T13:39:28;25.52;;;1.83;;
25073;SDS011;13066;52.042;5.648;2023-06-26T13:41:55;6.32;;;1.15;;
25073;SDS011;13066;52.042;5.648;2023-06-26T13:44:24;5.35;;;1.10;;
25073;SDS011;13066;52.042;5.648;2023-06-26T13:47:04;5.28;;;1.70;;
25073;SDS011;13066;52.042;5.648;2023-06-26T13:49:35;5.57;;;1.30;;
25073;SDS011;13066;52.042;5.648;2023-06-26T13:52:03;2.28;;;1.30;;
25073;SDS011;13066;52.042;5.648;2023-06-26T13:54:33;3.95;;;1.13;;
25073;SDS011;13066;52.042;5.648;2023-06-26T13:57:01;11.57;;;1.67;;
25073;SDS011;13066;52.042;5.648;2023-06-26T13:59:31;2.55;;;1.30;;
25073;SDS011;13066;52.042;5.648;2023-06-26T14:01:59;17.98;;;2.47;;
25073;SDS011;13066;52.042;5.648;2023-06-26T14:04:28;5.13;;;1.10;;
25073;SDS011;13066;52.042;5.648;2023-06-26T14:06:56;9.45;;;1.63;;
25073;SDS011;13066;52.042;5.648;2023-06-26T14:09:24;2.10;;;1.17;;
25073;SDS011;13066;52.042;5.648;2023-06-26T14:11:53;3.33;;;1.25;;
25073;SDS011;13066;52.042;5.648;2023-06-26T14:14:21;2.80;;;1.23;;
25073;SDS011;13066;52.042;5.648;2023-06-26T14:16:49;5.53;;;1.33;;
25073;SDS011;13066;52.042;5.648;2023-06-26T14:19:17;3.70;;;1.52;;
25073;SDS011;13066;52.042;5.648;2023-06-26T14:21:45;4.90;;;1.17;;
25073;SDS011;13066;52.042;5.648;2023-06-26T14:24:13;2.28;;;1.25;;
25073;SDS011;13066;52.042;5.648;2023-06-26T14:26:41;7.47;;;1.83;;
25073;SDS011;13066;52.042;5.648;2023-06-26T14:29:10;3.35;;;1.15;;
25073;SDS011;13066;52.042;5.648;2023-06-26T14:31:39;17.67;;;2.75;;
25073;SDS011;13066;52.042;5.648;2023-06-26T14:34:07;3.33;;;1.25;;
25073;SDS011;13066;52.042;5.648;2023-06-26T14:36:35;11.52;;;4.72;;
25073;SDS011;13066;52.042;5.648;2023-06-26T14:39:04;5.28;;;1.70;;
25073;SDS011;13066;52.042;5.648;2023-06-26T14:41:32;3.90;;;1.50;;
25073;SDS011;13066;52.042;5.648;2023-06-26T14:44:00;5.47;;;1.23;;
25073;SDS011;13066;52.042;5.648;2023-06-26T14:46:30;5.43;;;1.55;;
25073;SDS011;13066;52.042;5.648;2023-06-26T14:48:58;5.97;;;2.15;;
25073;SDS011;13066;52.042;5.648;2023-06-26T14:51:26;13.55;;;4.03;;
25073;SDS011;13066;52.042;5.648;2023-06-26T14:53:54;15.25;;;5.50;;
25073;SDS011;13066;52.042;5.648;2023-06-26T14:56:22;8.50;;;3.08;;
25073;SDS011;13066;52.042;5.648;2023-06-26T14:58:50;5.88;;;3.08;;
25073;SDS011;13066;52.042;5.648;2023-06-26T15:01:18;7.72;;;2.75;;